CSN8848 ZUUU-ZBAD
Flight info
| Callsign | CSN8848 |
|---|---|
| Flight time | N/A |
| Altitude | 37100 |
| Route | GURET9W GURET W233 AGULU W81 NSH G212 BELAX BELAX6M |
| Aircraft | A320/M-SDE3FGHIRWY/LB1 |
Departure
| Time | N/A |
|---|---|
| Airport | Chengdu Shuangliu International Airport (ZUUU) |
Arrival
| Time | 2026-05-07 22:14 |
|---|---|
| Airport | Beijing Daxing International Airport (ZBAD) |
| Time | Latitude | Longitude | Altitude | Speed | Heading |
|---|---|---|---|---|---|
| 2026-05-07 21:00 | 32.41020 | 107.37765 | 37331 ft | 509 kts | 40° |
| 2026-05-07 21:00 | 32.45849 | 107.43845 | 37342 ft | 510 kts | 40° |
| 2026-05-07 21:01 | 32.50690 | 107.49945 | 37337 ft | 509 kts | 41° |
| 2026-05-07 21:01 | 32.55548 | 107.56063 | 37324 ft | 508 kts | 41° |
| 2026-05-07 21:02 | 32.60368 | 107.62165 | 37324 ft | 506 kts | 40° |
| 2026-05-07 21:02 | 32.65470 | 107.67804 | 37314 ft | 498 kts | 31° |
| 2026-05-07 21:03 | 32.70899 | 107.72921 | 37306 ft | 500 kts | 31° |
| 2026-05-07 21:03 | 32.76357 | 107.78085 | 37300 ft | 502 kts | 31° |
| 2026-05-07 21:04 | 32.81808 | 107.83271 | 37306 ft | 502 kts | 31° |
| 2026-05-07 21:04 | 32.87220 | 107.88423 | 37318 ft | 501 kts | 31° |
| 2026-05-07 21:05 | 32.92657 | 107.93602 | 37327 ft | 500 kts | 31° |
| 2026-05-07 21:05 | 32.98083 | 107.98771 | 37336 ft | 499 kts | 31° |
| 2026-05-07 21:06 | 33.03504 | 108.03946 | 37336 ft | 499 kts | 31° |
| 2026-05-07 21:06 | 33.08905 | 108.09117 | 37336 ft | 499 kts | 31° |
| 2026-05-07 21:07 | 33.14304 | 108.14299 | 37334 ft | 499 kts | 31° |
| 2026-05-07 21:07 | 33.19715 | 108.19489 | 37340 ft | 498 kts | 31° |
| 2026-05-07 21:08 | 33.25080 | 108.24639 | 37340 ft | 498 kts | 31° |
| 2026-05-07 21:08 | 33.30483 | 108.29825 | 37347 ft | 496 kts | 28° |
| 2026-05-07 21:08 | 33.33340 | 108.32041 | 37348 ft | 485 kts | 19° |
| 2026-05-07 21:09 | 33.36340 | 108.33849 | 37347 ft | 481 kts | 17° |
| 2026-05-07 21:09 | 33.42342 | 108.37394 | 37343 ft | 481 kts | 17° |
| 2026-05-07 21:10 | 33.48336 | 108.40955 | 37352 ft | 481 kts | 17° |
| 2026-05-07 21:10 | 33.54337 | 108.44527 | 37363 ft | 481 kts | 18° |
| 2026-05-07 21:11 | 33.60314 | 108.48099 | 37372 ft | 480 kts | 17° |
| 2026-05-07 21:11 | 33.69218 | 108.53414 | 37380 ft | 478 kts | 17° |
| 2026-05-07 21:12 | 33.75157 | 108.56975 | 37372 ft | 476 kts | 18° |
| 2026-05-07 21:12 | 33.81084 | 108.60534 | 37376 ft | 476 kts | 18° |
| 2026-05-07 21:13 | 33.86997 | 108.64088 | 37375 ft | 475 kts | 18° |
| 2026-05-07 21:13 | 33.92897 | 108.67637 | 37368 ft | 473 kts | 18° |
| 2026-05-07 21:14 | 33.94562 | 108.68638 | 37367 ft | 473 kts | 18° |
| 2026-05-07 21:14 | 33.99170 | 108.71415 | 37359 ft | 472 kts | 18° |
| 2026-05-07 21:15 | 34.04764 | 108.74788 | 37354 ft | 471 kts | 18° |
| 2026-05-07 21:15 | 34.10621 | 108.78323 | 37353 ft | 471 kts | 18° |
| 2026-05-07 21:16 | 34.14115 | 108.80440 | 37349 ft | 471 kts | 18° |
| 2026-05-07 21:16 | 34.19981 | 108.83964 | 37345 ft | 468 kts | 14° |
| 2026-05-07 21:17 | 34.23005 | 108.85266 | 37342 ft | 456 kts | 5° |
| 2026-05-07 21:17 | 34.26076 | 108.85983 | 37341 ft | 446 kts | 358° |
| 2026-05-07 21:17 | 34.32228 | 108.86962 | 37340 ft | 446 kts | 358° |
| 2026-05-07 21:18 | 34.38384 | 108.87968 | 37350 ft | 446 kts | 358° |
| 2026-05-07 21:18 | 34.44543 | 108.88987 | 37342 ft | 446 kts | 358° |
| 2026-05-07 21:19 | 34.50694 | 108.89999 | 37344 ft | 446 kts | 358° |
| 2026-05-07 21:19 | 34.56809 | 108.90997 | 37347 ft | 446 kts | 358° |
| 2026-05-07 21:20 | 34.62943 | 108.92609 | 37349 ft | 457 kts | 7° |
| 2026-05-07 21:20 | 34.69035 | 108.94812 | 37354 ft | 457 kts | 7° |
| 2026-05-07 21:21 | 34.75129 | 108.97010 | 37356 ft | 457 kts | 7° |
| 2026-05-07 21:21 | 34.81220 | 108.99210 | 37365 ft | 456 kts | 7° |
| 2026-05-07 21:22 | 34.87296 | 109.01497 | 37365 ft | 458 kts | 9° |
| 2026-05-07 21:22 | 34.93350 | 109.03931 | 37368 ft | 458 kts | 9° |
| 2026-05-07 21:23 | 34.99365 | 109.06354 | 37373 ft | 458 kts | 9° |
| 2026-05-07 21:23 | 35.05417 | 109.08745 | 37380 ft | 457 kts | 9° |
| 2026-05-07 21:24 | 35.11466 | 109.11123 | 37382 ft | 457 kts | 9° |
| 2026-05-07 21:24 | 35.30057 | 109.18363 | 37147 ft | 437 kts | 355° |
| 2026-05-07 21:25 | 35.37146 | 109.20568 | 37198 ft | 453 kts | 12° |
| 2026-05-07 21:25 | 35.43022 | 109.23499 | 37369 ft | 457 kts | 13° |
| 2026-05-07 21:25 | 35.48968 | 109.26211 | 37381 ft | 453 kts | 9° |
| 2026-05-07 21:26 | 35.60947 | 109.30864 | 37389 ft | 451 kts | 8° |
| 2026-05-07 21:26 | 35.72887 | 109.35654 | 37411 ft | 452 kts | 9° |
| 2026-05-07 21:27 | 35.84800 | 109.40743 | 37409 ft | 455 kts | 11° |
| 2026-05-07 21:27 | 35.96570 | 109.46297 | 37420 ft | 455 kts | 11° |
| 2026-05-07 21:28 | 36.07630 | 109.51385 | 37428 ft | 455 kts | 10° |
| 2026-05-07 21:29 | 36.08879 | 109.51954 | 37436 ft | 455 kts | 10° |
| 2026-05-07 21:30 | 36.31424 | 109.62530 | 36416 ft | 465 kts | 19° |
| 2026-05-07 21:30 | 36.40324 | 109.74798 | 35469 ft | 501 kts | 57° |
| 2026-05-07 21:30 | 36.46970 | 109.89889 | 35327 ft | 505 kts | 56° |
| 2026-05-07 21:31 | 36.60146 | 110.20279 | 35214 ft | 504 kts | 57° |
| 2026-05-07 21:31 | 36.66684 | 110.35441 | 35366 ft | 498 kts | 57° |
| 2026-05-07 21:31 | 36.73276 | 110.50801 | 35425 ft | 493 kts | 57° |
| 2026-05-07 21:32 | 36.79682 | 110.65876 | 35459 ft | 504 kts | 57° |
| 2026-05-07 21:32 | 36.86315 | 110.81464 | 35335 ft | 501 kts | 57° |
| 2026-05-07 21:32 | 36.92788 | 110.96774 | 35190 ft | 510 kts | 57° |
| 2026-05-07 21:32 | 36.99352 | 111.12374 | 35288 ft | 501 kts | 57° |
| 2026-05-07 21:33 | 37.12273 | 111.43334 | 35352 ft | 506 kts | 57° |
| 2026-05-07 21:33 | 37.25236 | 111.74683 | 35365 ft | 507 kts | 57° |
| 2026-05-07 21:34 | 37.28580 | 111.82797 | 35882 ft | 484 kts | 63° |
| 2026-05-07 21:34 | 37.30101 | 111.86467 | 36211 ft | 465 kts | 63° |
| 2026-05-07 21:34 | 37.33494 | 111.94753 | 35603 ft | 448 kts | 63° |
| 2026-05-07 21:34 | 37.39025 | 112.08352 | 34970 ft | 424 kts | 63° |
| 2026-05-07 21:35 | 37.44534 | 112.21924 | 35052 ft | 449 kts | 63° |
| 2026-05-07 21:35 | 37.50213 | 112.35943 | 35043 ft | 451 kts | 63° |
| 2026-05-07 21:35 | 37.61538 | 112.64127 | 35040 ft | 450 kts | 63° |
| 2026-05-07 21:36 | 37.72839 | 112.92390 | 35034 ft | 450 kts | 63° |
| 2026-05-07 21:36 | 37.83968 | 113.20533 | 35040 ft | 450 kts | 64° |
| 2026-05-07 21:37 | 37.90428 | 113.36927 | 35036 ft | 450 kts | 63° |
| 2026-05-07 21:37 | 38.01517 | 113.65375 | 35023 ft | 451 kts | 64° |
| 2026-05-07 21:38 | 38.12510 | 113.93995 | 35020 ft | 451 kts | 64° |
| 2026-05-07 21:38 | 38.21604 | 114.17784 | 35017 ft | 450 kts | 64° |
| 2026-05-07 21:39 | 38.34392 | 114.51338 | 35009 ft | 450 kts | 64° |
| 2026-05-07 21:39 | 38.45214 | 114.80122 | 35005 ft | 450 kts | 64° |
| 2026-05-07 21:40 | 38.55981 | 115.09013 | 35008 ft | 450 kts | 65° |
| 2026-05-07 21:40 | 38.66576 | 115.37808 | 35008 ft | 450 kts | 65° |
| 2026-05-07 21:41 | 38.72487 | 115.51554 | 34966 ft | 450 kts | 49° |
| 2026-05-07 21:41 | 38.82486 | 115.61496 | 34931 ft | 449 kts | 33° |
| 2026-05-07 21:41 | 38.92891 | 115.70456 | 32976 ft | 451 kts | 33° |
| 2026-05-07 21:41 | 39.03409 | 115.79465 | 30366 ft | 457 kts | 33° |
| 2026-05-07 21:42 | 39.14007 | 115.88593 | 27566 ft | 460 kts | 34° |
| 2026-05-07 21:42 | 39.23775 | 115.97033 | 27485 ft | 464 kts | 34° |
| 2026-05-07 21:42 | 39.34886 | 116.06652 | 27094 ft | 461 kts | 34° |
| 2026-05-07 21:42 | 39.42028 | 116.12870 | 24747 ft | 465 kts | 34° |
| 2026-05-07 21:43 | 39.44715 | 116.15210 | 23723 ft | 468 kts | 34° |
| 2026-05-07 21:43 | 39.46789 | 116.17015 | 22903 ft | 469 kts | 34° |
| 2026-05-07 21:43 | 39.50081 | 116.19892 | 21568 ft | 472 kts | 34° |
| 2026-05-07 21:44 | 39.52765 | 116.22244 | 20415 ft | 473 kts | 34° |
| 2026-05-07 21:44 | 39.55484 | 116.24630 | 19427 ft | 471 kts | 34° |
| 2026-05-07 21:44 | 39.58183 | 116.26995 | 18580 ft | 464 kts | 34° |
| 2026-05-07 21:44 | 39.60824 | 116.29308 | 18120 ft | 451 kts | 34° |
| 2026-05-07 21:45 | 39.63373 | 116.31543 | 17846 ft | 434 kts | 34° |
| 2026-05-07 21:45 | 39.65824 | 116.33689 | 17596 ft | 419 kts | 34° |
| 2026-05-07 21:45 | 39.68200 | 116.35771 | 17345 ft | 406 kts | 34° |
| 2026-05-07 21:45 | 39.69763 | 116.37144 | 17176 ft | 399 kts | 34° |
| 2026-05-07 21:46 | 39.72001 | 116.39115 | 16927 ft | 388 kts | 34° |
| 2026-05-07 21:46 | 39.74201 | 116.41055 | 16682 ft | 377 kts | 34° |
| 2026-05-07 21:46 | 39.76343 | 116.42948 | 16426 ft | 367 kts | 34° |
| 2026-05-07 21:46 | 39.78431 | 116.44790 | 16166 ft | 358 kts | 34° |
| 2026-05-07 21:47 | 39.80469 | 116.46585 | 15921 ft | 350 kts | 34° |
| 2026-05-07 21:47 | 39.82466 | 116.48344 | 15683 ft | 343 kts | 34° |
| 2026-05-07 21:47 | 39.84422 | 116.50072 | 15430 ft | 337 kts | 34° |
| 2026-05-07 21:47 | 39.86343 | 116.51767 | 15173 ft | 331 kts | 34° |
| 2026-05-07 21:48 | 39.88240 | 116.53444 | 14927 ft | 327 kts | 34° |
| 2026-05-07 21:48 | 39.90107 | 116.55101 | 14675 ft | 323 kts | 34° |
| 2026-05-07 21:48 | 39.91957 | 116.56742 | 14426 ft | 321 kts | 34° |
| 2026-05-07 21:48 | 39.93796 | 116.58371 | 14176 ft | 320 kts | 34° |
| 2026-05-07 21:49 | 39.95631 | 116.60000 | 13929 ft | 318 kts | 34° |
| 2026-05-07 21:49 | 39.97456 | 116.61622 | 13699 ft | 316 kts | 34° |
| 2026-05-07 21:49 | 39.99268 | 116.63237 | 13804 ft | 317 kts | 34° |
| 2026-05-07 21:49 | 40.01095 | 116.64866 | 13816 ft | 318 kts | 34° |
| 2026-05-07 21:50 | 40.02898 | 116.66471 | 13802 ft | 318 kts | 34° |
| 2026-05-07 21:50 | 40.04746 | 116.68117 | 13804 ft | 318 kts | 34° |
| 2026-05-07 21:50 | 40.06547 | 116.69719 | 13812 ft | 318 kts | 34° |
| 2026-05-07 21:50 | 40.08378 | 116.71353 | 13801 ft | 318 kts | 34° |
| 2026-05-07 21:51 | 40.10204 | 116.72982 | 13808 ft | 318 kts | 34° |
| 2026-05-07 21:51 | 40.12032 | 116.74614 | 13809 ft | 318 kts | 34° |
| 2026-05-07 21:51 | 40.15298 | 116.77526 | 13806 ft | 318 kts | 34° |
| 2026-05-07 21:51 | 40.22600 | 116.84064 | 13812 ft | 318 kts | 34° |
| 2026-05-07 21:52 | 40.29813 | 116.90534 | 13812 ft | 318 kts | 34° |
| 2026-05-07 21:52 | 40.37103 | 116.97104 | 13812 ft | 318 kts | 34° |
| 2026-05-07 21:52 | 40.44390 | 117.03677 | 13808 ft | 318 kts | 34° |
| 2026-05-07 21:52 | 40.51684 | 117.10277 | 13800 ft | 318 kts | 34° |
| 2026-05-07 21:53 | 40.59211 | 117.16238 | 13756 ft | 317 kts | 7° |
| 2026-05-07 21:53 | 40.64955 | 117.11317 | 13769 ft | 313 kts | 283° |
| 2026-05-07 21:53 | 40.65282 | 117.08491 | 13768 ft | 313 kts | 275° |
| 2026-05-07 21:53 | 40.65225 | 117.05639 | 13768 ft | 313 kts | 264° |
| 2026-05-07 21:54 | 40.64858 | 117.02821 | 13767 ft | 312 kts | 254° |
| 2026-05-07 21:54 | 40.64101 | 117.00141 | 13685 ft | 313 kts | 246° |
| 2026-05-07 21:54 | 40.63249 | 116.97515 | 13427 ft | 311 kts | 246° |
| 2026-05-07 21:54 | 40.62402 | 116.94904 | 13181 ft | 309 kts | 246° |
| 2026-05-07 21:55 | 40.61569 | 116.92343 | 12933 ft | 308 kts | 246° |
| 2026-05-07 21:55 | 40.60659 | 116.89800 | 12684 ft | 306 kts | 239° |
| 2026-05-07 21:55 | 40.59380 | 116.87573 | 12431 ft | 305 kts | 225° |
| 2026-05-07 21:55 | 40.57799 | 116.85722 | 12179 ft | 304 kts | 220° |
| 2026-05-07 21:56 | 40.56195 | 116.83923 | 11929 ft | 303 kts | 220° |
| 2026-05-07 21:56 | 40.54596 | 116.82120 | 11676 ft | 302 kts | 220° |
| 2026-05-07 21:56 | 40.53008 | 116.80326 | 11428 ft | 301 kts | 220° |
| 2026-05-07 21:56 | 40.51425 | 116.78539 | 11175 ft | 299 kts | 220° |
| 2026-05-07 21:57 | 40.49846 | 116.76760 | 10913 ft | 298 kts | 220° |
| 2026-05-07 21:57 | 40.48271 | 116.74990 | 10670 ft | 297 kts | 220° |
| 2026-05-07 21:57 | 40.46715 | 116.73245 | 10525 ft | 292 kts | 220° |
| 2026-05-07 21:57 | 40.45176 | 116.71517 | 10396 ft | 291 kts | 220° |
| 2026-05-07 21:58 | 40.41286 | 116.68570 | 10112 ft | 290 kts | 193° |
| 2026-05-07 21:58 | 40.33426 | 116.69220 | 9616 ft | 288 kts | 173° |
| 2026-05-07 21:58 | 40.25341 | 116.70453 | 9660 ft | 286 kts | 173° |
| 2026-05-07 21:58 | 40.17377 | 116.71702 | 9686 ft | 289 kts | 173° |
| 2026-05-07 21:59 | 40.09373 | 116.72948 | 9673 ft | 288 kts | 173° |
| 2026-05-07 21:59 | 40.01412 | 116.74178 | 9679 ft | 289 kts | 174° |
| 2026-05-07 21:59 | 39.93407 | 116.75415 | 9661 ft | 290 kts | 173° |
| 2026-05-07 21:59 | 39.85458 | 116.76654 | 9232 ft | 286 kts | 173° |
| 2026-05-07 22:00 | 39.77728 | 116.77858 | 8813 ft | 285 kts | 173° |
| 2026-05-07 22:00 | 39.69871 | 116.79065 | 8402 ft | 284 kts | 174° |
| 2026-05-07 22:00 | 39.62077 | 116.80260 | 7967 ft | 281 kts | 174° |
| 2026-05-07 22:00 | 39.54564 | 116.78478 | 7543 ft | 281 kts | 200° |
| 2026-05-07 22:01 | 39.47258 | 116.75111 | 7105 ft | 277 kts | 200° |
| 2026-05-07 22:01 | 39.40047 | 116.71779 | 6692 ft | 275 kts | 200° |
| 2026-05-07 22:01 | 39.33611 | 116.67031 | 6520 ft | 273 kts | 240° |
| 2026-05-07 22:01 | 39.30825 | 116.58284 | 6489 ft | 272 kts | 208° |
| 2026-05-07 22:02 | 39.28328 | 116.57715 | 6488 ft | 275 kts | 174° |
| 2026-05-07 22:02 | 39.26434 | 116.58024 | 6467 ft | 271 kts | 173° |
| 2026-05-07 22:02 | 39.24607 | 116.58322 | 6483 ft | 259 kts | 173° |
| 2026-05-07 22:02 | 39.22824 | 116.58603 | 6089 ft | 262 kts | 173° |
| 2026-05-07 22:03 | 39.21061 | 116.58878 | 5917 ft | 247 kts | 173° |
| 2026-05-07 22:03 | 39.19387 | 116.59133 | 5588 ft | 239 kts | 174° |
| 2026-05-07 22:03 | 39.17747 | 116.59381 | 5125 ft | 236 kts | 174° |
| 2026-05-07 22:03 | 39.16109 | 116.59629 | 4736 ft | 237 kts | 174° |
| 2026-05-07 22:04 | 39.14498 | 116.59806 | 4491 ft | 234 kts | 185° |
| 2026-05-07 22:04 | 39.12983 | 116.59127 | 4346 ft | 226 kts | 217° |
| 2026-05-07 22:04 | 39.12023 | 116.57613 | 4228 ft | 217 kts | 247° |
| 2026-05-07 22:04 | 39.11718 | 116.55771 | 4108 ft | 210 kts | 263° |
| 2026-05-07 22:05 | 39.11546 | 116.53930 | 3981 ft | 205 kts | 263° |
| 2026-05-07 22:05 | 39.11377 | 116.52142 | 3875 ft | 197 kts | 263° |
| 2026-05-07 22:05 | 39.11331 | 116.50413 | 3798 ft | 192 kts | 283° |
| 2026-05-07 22:05 | 39.12004 | 116.48974 | 3776 ft | 193 kts | 320° |
| 2026-05-07 22:06 | 39.13229 | 116.48353 | 3649 ft | 193 kts | 354° |
| 2026-05-07 22:06 | 39.14571 | 116.48206 | 3531 ft | 193 kts | 353° |
| 2026-05-07 22:06 | 39.15904 | 116.48006 | 3415 ft | 193 kts | 353° |
| 2026-05-07 22:06 | 39.17236 | 116.47794 | 3365 ft | 193 kts | 352° |
| 2026-05-07 22:07 | 39.18569 | 116.47591 | 3312 ft | 193 kts | 353° |
| 2026-05-07 22:07 | 39.19904 | 116.47392 | 3259 ft | 193 kts | 353° |
| 2026-05-07 22:07 | 39.21237 | 116.47187 | 3182 ft | 192 kts | 352° |
| 2026-05-07 22:07 | 39.22567 | 116.46980 | 3133 ft | 192 kts | 352° |
| 2026-05-07 22:08 | 39.23899 | 116.46773 | 3085 ft | 193 kts | 352° |
| 2026-05-07 22:08 | 39.25212 | 116.46568 | 3038 ft | 193 kts | 352° |
| 2026-05-07 22:08 | 39.26535 | 116.46361 | 2946 ft | 187 kts | 352° |
| 2026-05-07 22:08 | 39.27742 | 116.46173 | 2888 ft | 160 kts | 352° |
| 2026-05-07 22:09 | 39.28814 | 116.46005 | 2879 ft | 151 kts | 352° |
| 2026-05-07 22:09 | 39.29840 | 116.45844 | 2881 ft | 147 kts | 353° |
| 2026-05-07 22:09 | 39.30855 | 116.45685 | 2884 ft | 146 kts | 352° |
| 2026-05-07 22:09 | 39.31861 | 116.45528 | 2878 ft | 145 kts | 352° |
| 2026-05-07 22:10 | 39.32869 | 116.45370 | 2797 ft | 146 kts | 352° |
| 2026-05-07 22:10 | 39.33875 | 116.45212 | 2665 ft | 145 kts | 353° |
| 2026-05-07 22:10 | 39.34876 | 116.45056 | 2487 ft | 145 kts | 352° |
| 2026-05-07 22:10 | 39.35872 | 116.44900 | 2309 ft | 144 kts | 352° |
| 2026-05-07 22:11 | 39.36864 | 116.44744 | 2108 ft | 143 kts | 352° |
| 2026-05-07 22:11 | 39.37854 | 116.44589 | 1921 ft | 143 kts | 352° |
| 2026-05-07 22:11 | 39.38843 | 116.44434 | 1740 ft | 143 kts | 352° |
| 2026-05-07 22:11 | 39.39829 | 116.44285 | 1529 ft | 142 kts | 352° |
| 2026-05-07 22:12 | 39.40811 | 116.44126 | 1341 ft | 142 kts | 351° |
| 2026-05-07 22:12 | 39.41790 | 116.43976 | 1173 ft | 142 kts | 352° |
| 2026-05-07 22:12 | 39.42754 | 116.43822 | 961 ft | 141 kts | 352° |
| 2026-05-07 22:12 | 39.43728 | 116.43670 | 786 ft | 141 kts | 352° |
| 2026-05-07 22:13 | 39.44700 | 116.43517 | 613 ft | 141 kts | 352° |
| 2026-05-07 22:13 | 39.45667 | 116.43366 | 412 ft | 140 kts | 353° |
| 2026-05-07 22:13 | 39.46635 | 116.43213 | 251 ft | 140 kts | 352° |
| 2026-05-07 22:13 | 39.47600 | 116.43055 | 128 ft | 140 kts | 352° |
| 2026-05-07 22:14 | 39.48436 | 116.42924 | 108 ft | 98 kts | 353° |
| 2026-05-07 22:14 | 39.48941 | 116.42848 | 100 ft | 48 kts | 354° |
| 2026-05-07 22:14 | 39.49157 | 116.42813 | 98 ft | 28 kts | 355° |
| 2026-05-07 22:14 | 39.49335 | 116.42787 | 96 ft | 13 kts | 351° |
| 2026-05-07 22:15 | 39.49432 | 116.42740 | 95 ft | 16 kts | 332° |
| 2026-05-07 22:15 | 39.49538 | 116.42654 | 95 ft | 17 kts | 325° |
| 2026-05-07 22:15 | 39.49628 | 116.42576 | 95 ft | 7 kts | 327° |
| 2026-05-07 22:15 | 39.49679 | 116.42532 | 96 ft | 10 kts | 327° |
| 2026-05-07 22:16 | 39.49734 | 116.42502 | 95 ft | 0 kts | 347° |
| 2026-05-07 22:16 | 39.49745 | 116.42499 | 97 ft | 0 kts | 347° |
| 2026-05-07 22:16 | 39.49750 | 116.42497 | 96 ft | 1 kts | 347° |
| 2026-05-07 22:16 | 39.49765 | 116.42495 | 97 ft | 3 kts | 355° |
| 2026-05-07 22:17 | 39.49799 | 116.42491 | 95 ft | 6 kts | 354° |
| 2026-05-07 22:17 | 39.49851 | 116.42484 | 97 ft | 9 kts | 353° |
| 2026-05-07 22:17 | 39.49923 | 116.42472 | 96 ft | 12 kts | 354° |
| 2026-05-07 22:17 | 39.50015 | 116.42458 | 95 ft | 15 kts | 353° |
| 2026-05-07 22:18 | 39.50114 | 116.42436 | 97 ft | 11 kts | 331° |
| 2026-05-07 22:18 | 39.50247 | 116.42306 | 95 ft | 17 kts | 353° |
| 2026-05-07 22:18 | 39.50372 | 116.42286 | 95 ft | 20 kts | 353° |
| 2026-05-07 22:19 | 39.50519 | 116.42264 | 95 ft | 23 kts | 353° |
| 2026-05-07 22:19 | 39.50686 | 116.42238 | 96 ft | 26 kts | 353° |
| 2026-05-07 22:19 | 39.50862 | 116.42211 | 96 ft | 22 kts | 353° |
| 2026-05-07 22:19 | 39.50994 | 116.42190 | 97 ft | 14 kts | 353° |
| 2026-05-07 22:20 | 39.51034 | 116.42154 | 95 ft | 7 kts | 291° |
| 2026-05-07 22:20 | 39.51033 | 116.42074 | 95 ft | 10 kts | 264° |
| 2026-05-07 22:20 | 39.51022 | 116.41967 | 95 ft | 13 kts | 262° |
| 2026-05-07 22:20 | 39.51049 | 116.41907 | 95 ft | 10 kts | 344° |
| 2026-05-07 22:21 | 39.51083 | 116.41834 | 95 ft | 12 kts | 266° |
| 2026-05-07 22:21 | 39.51077 | 116.41767 | 98 ft | 9 kts | 263° |
| 2026-05-07 22:21 | 39.51068 | 116.41678 | 95 ft | 12 kts | 262° |
| 2026-05-07 22:21 | 39.51054 | 116.41596 | 96 ft | 0 kts | 241° |
| 2026-05-07 22:22 | 39.51053 | 116.41594 | 96 ft | 0 kts | 240° |
| 2026-05-07 22:22 | 39.51050 | 116.41591 | 96 ft | 1 kts | 223° |
| 2026-05-07 22:23 | 39.51036 | 116.41581 | 97 ft | 4 kts | 206° |
| 2026-05-07 22:23 | 39.51002 | 116.41564 | 95 ft | 7 kts | 200° |
| 2026-05-07 22:23 | 39.50989 | 116.41558 | 95 ft | 1 kts | 200° |
| 2026-05-07 22:23 | 39.50983 | 116.41555 | 95 ft | 2 kts | 200° |
| 2026-05-07 22:24 | 39.50971 | 116.41549 | 95 ft | 1 kts | 200° |
| 2026-05-07 22:24 | 39.50965 | 116.41546 | 97 ft | 2 kts | 200° |
| 2026-05-07 22:24 | 39.50963 | 116.41545 | 95 ft | 0 kts | 200° |
| 2026-05-07 22:30 | 39.50962 | 116.41545 | 95 ft | 0 kts | 200° |